Terminal Aerodrome Forecast
Issued by NWS Green Bay, WI

Home | Current Version | Previous Version | Graphics & Text | Print | Product List | Glossary On
Versions: 1 2 3 4 5 6 7 8 9 10 11 12 13 14 15 16 17 18 19 20 21 22 23 24 25 26 27 28 29 30 31
000
FTUS43 KGRB 221200 AAA
TAFGRB
TAF AMD
KGRB 221210Z 2212/2312 00000KT 1/2SM FZFG VV002
     FM221300 VRB02KT 1SM BR SCT002
      TEMPO 2213/2214 4SM BR
     FM221400 12004KT P6SM SKC
      TEMPO 2214/2215 5SM BR
     FM230000 15005KT P6SM SCT250
     FM230800 18004KT P6SM BKN250=

USA.gov is the U.S. government's official web portal to all federal, state and local government web resources and services.